LEBA/ODB METAR and TAF weather

Enter ICAO airport designator
Station Type Date Time Source
LEBA METAR 2021/05/14 07:30 UTC NOAA

LEBA 140730Z 25004KT 200V290 CAVOK 16/10 Q1019


Station Type Date Time Source
LEBA Decoded METAR 2021/05/14 07:30 UTC NOAA

Cordoba / Aeropuerto, Spain (LEBA) 37-51N 004-51W 92M
May 14, 2021 - 03:30 AM EDT / 2021.05.14 0730 UTC
Wind: from the WSW (250 degrees) at 5 MPH (4 KT) (direction variable):0
Visibility: greater than 7 mile(s):0
Temperature: 60 F (16 C)
Dew Point: 50 F (10 C)
Relative Humidity: 67%
Pressure (altimeter): 30.09 in. Hg (1019 hPa)
ob: LEBA 140730Z 25004KT 200V290 CAVOK 16/10 Q1019
cycle: 7

Station Type Date Time Source
LEBA TAF 2021/05/14 03:27 UTC NOAA

TAF TAF LEBA 140200Z 1403/1503 29005KT CAVOK TX30/1415Z TN10/1406Z

Example: see airport list